Main page
METAR-TAF:

METAR-TAF

Airports :

Río Amazonas Airport

Shell Mera, Ecuador

latitude: 01-30-19S, longitude: 078-03-46W, elevation: 1056 m

Current weather observation

The report was made 18 minutes ago, at 12:00 UTC
Wind 4 kt from the North/Northwest, varying between West/Northwest and North
Temperature 19°C
Humidity 94%
Pressure 1017 hPa
Visibility 10 km or more
Broken clouds at a height of 4000 ft
Broken clouds at a height of 9000 ft

METAR: SESM 121200Z 33004KT 300V360 9999 BKN040 BKN090 19/18 Q1017 RMK A3005

Time: 07:18 (12:18 UTC)


TAF: missing

Weather observations and forecasts of more than 4000 airports (METAR and TAF reports).

The available stations are represented by yellow and red dots on the map.

Hover mouse over dot to see the name of the station.

Then click to see weather observations and forecasts.

To change the map : click on the green buttons with a black cross to zoom in, on the green button with a dash to zoom out, or on the green arrows for adjacent maps.


METAR-TAF: